createdAt,value
2019-03-13T00:02:05.930Z,9.10
2019-03-13T00:07:09.731Z,9.10
2019-03-13T00:12:13.504Z,9.00
2019-03-13T00:17:17.327Z,9.20
2019-03-13T00:22:21.171Z,9.50
2019-03-13T00:27:25.016Z,9.60
2019-03-13T00:32:28.753Z,9.80
2019-03-13T00:37:34.551Z,9.70
2019-03-13T00:42:38.210Z,9.70
2019-03-13T00:47:41.862Z,9.20
2019-03-13T00:52:45.852Z,8.80
2019-03-13T00:57:49.853Z,8.60
2019-03-13T01:02:54.690Z,8.40
2019-03-13T01:07:58.367Z,8.30
2019-03-13T01:13:02.035Z,8.20
2019-03-13T01:18:05.927Z,8.10
2019-03-13T01:23:09.538Z,7.90
2019-03-13T01:28:13.240Z,7.70
2019-03-13T01:33:18.032Z,7.70
2019-03-13T01:38:21.653Z,7.60
2019-03-13T01:43:25.431Z,7.50
2019-03-13T01:48:29.129Z,7.40
2019-03-13T01:53:32.756Z,7.20
2019-03-13T01:58:36.660Z,7.00
2019-03-13T02:03:40.360Z,6.80
2019-03-13T02:08:43.976Z,6.60
2019-03-13T02:13:50.678Z,6.50
2019-03-13T02:18:54.341Z,6.40
2019-03-13T02:23:58.159Z,6.40
2019-03-13T02:29:01.826Z,6.30
2019-03-13T02:34:05.493Z,6.30
2019-03-13T02:39:09.420Z,6.10
2019-03-13T02:44:13.120Z,6.10
2019-03-13T02:49:16.799Z,6.00
2019-03-13T02:54:20.459Z,6.00
2019-03-13T02:59:24.251Z,5.80
2019-03-13T03:04:27.942Z,5.60
2019-03-13T03:09:31.567Z,5.50
2019-03-13T03:14:35.548Z,5.30
2019-03-13T03:19:39.187Z,5.20
2019-03-13T03:24:44.029Z,5.30
2019-03-13T03:29:47.643Z,5.30
2019-03-13T03:34:51.927Z,5.20
2019-03-13T03:39:57.177Z,5.10
2019-03-13T03:45:00.899Z,5.10
2019-03-13T03:50:07.331Z,5.10
2019-03-13T03:55:12.128Z,5.10
2019-03-13T04:00:22.235Z,5.00
2019-03-13T04:05:25.843Z,5.10
2019-03-13T04:10:29.536Z,5.10
2019-03-13T04:15:33.223Z,5.10
2019-03-13T04:20:38.217Z,5.10
2019-03-13T04:25:41.901Z,5.00
2019-03-13T04:30:45.528Z,4.90
2019-03-13T04:35:49.206Z,5.00
2019-03-13T04:40:52.845Z,5.00
2019-03-13T04:45:56.472Z,5.10
2019-03-13T04:51:00.074Z,5.10
2019-03-13T04:56:05.285Z,5.00
2019-03-13T05:01:08.998Z,5.00
2019-03-13T05:06:15.978Z,5.10
2019-03-13T05:11:19.683Z,5.00
2019-03-13T05:16:23.712Z,5.00
2019-03-13T05:21:27.635Z,5.00
2019-03-13T05:26:31.278Z,5.00
2019-03-13T05:31:34.931Z,4.90
2019-03-13T05:36:38.539Z,4.70
2019-03-13T05:41:42.550Z,4.80
2019-03-13T05:46:46.185Z,4.80
2019-03-13T05:51:49.831Z,4.80
2019-03-13T05:56:53.461Z,4.70
2019-03-13T06:01:57.070Z,4.70
2019-03-13T06:07:01.189Z,4.60
2019-03-13T06:12:04.973Z,4.60
2019-03-13T06:17:08.659Z,4.60
2019-03-13T06:22:12.415Z,4.70
2019-03-13T06:27:15.990Z,4.60
2019-03-13T06:32:19.610Z,4.70
2019-03-13T06:37:23.246Z,4.70
2019-03-13T06:42:27.094Z,4.90
2019-03-13T06:47:30.736Z,4.70
2019-03-13T06:52:35.368Z,4.80
2019-03-13T06:57:38.991Z,4.90
2019-03-13T07:02:44.342Z,4.90
2019-03-13T07:07:49.627Z,4.90
2019-03-13T07:13:03.895Z,5.00
2019-03-13T07:18:09.397Z,5.00
2019-03-13T07:23:14.795Z,5.10
2019-03-13T07:28:26.017Z,5.00
2019-03-13T07:33:37.769Z,5.00
2019-03-13T07:38:48.902Z,5.10
2019-03-13T07:44:01.768Z,5.50
2019-03-13T07:49:23.254Z,5.40
2019-03-13T07:54:44.738Z,5.60
2019-03-13T08:00:06.619Z,5.50
2019-03-13T08:05:18.417Z,5.80
2019-03-13T08:10:23.683Z,6.10
2019-03-13T08:15:46.970Z,6.20
2019-03-13T08:20:52.211Z,6.20
2019-03-13T08:26:13.463Z,6.00
2019-03-13T08:31:27.761Z,5.80
2019-03-13T08:36:33.047Z,5.90
2019-03-13T08:41:38.398Z,5.80
2019-03-13T08:46:43.715Z,5.00
2019-03-13T08:51:48.977Z,4.60
2019-03-13T08:57:03.398Z,4.60
2019-03-13T09:02:24.960Z,5.00
2019-03-13T09:07:30.264Z,5.00
2019-03-13T09:12:38.550Z,5.00
2019-03-13T09:17:46.383Z,5.00
2019-03-13T09:23:04.051Z,5.20
2019-03-13T09:28:09.355Z,5.30
2019-03-13T09:33:31.178Z,5.20
2019-03-13T09:38:45.187Z,5.30
2019-03-13T09:44:00.000Z,5.50
2019-03-13T09:49:20.836Z,5.40
2019-03-13T09:54:26.082Z,5.50
2019-03-13T09:59:42.639Z,5.90
2019-03-13T10:04:45.377Z,5.90
2019-03-13T10:09:56.490Z,5.90
2019-03-13T10:15:01.756Z,5.90
2019-03-13T10:20:26.294Z,5.20
2019-03-13T10:25:43.862Z,4.90
2019-03-13T10:30:49.168Z,5.00
2019-03-13T10:36:00.192Z,5.50
2019-03-13T10:41:11.513Z,6.60
2019-03-13T10:46:19.514Z,7.30
2019-03-13T10:51:27.691Z,7.60
2019-03-13T10:56:39.023Z,7.80
2019-03-13T11:01:59.497Z,8.30
2019-03-13T11:07:13.766Z,8.00
2019-03-13T11:12:21.448Z,8.90
2019-03-13T11:17:26.807Z,8.80
2019-03-13T11:22:37.992Z,8.80
2019-03-13T11:27:52.208Z,9.10
2019-03-13T11:32:57.518Z,9.70
2019-03-13T11:38:05.379Z,9.00
2019-03-13T11:43:26.956Z,8.50
2019-03-13T11:48:32.236Z,9.10
2019-03-13T11:53:39.944Z,8.50
2019-03-13T11:58:45.289Z,8.90
2019-03-13T12:03:59.555Z,9.00
2019-03-13T12:09:23.551Z,9.80
2019-03-13T12:14:30.137Z,8.80
2019-03-13T12:19:35.394Z,9.00
2019-03-13T12:24:46.775Z,8.30
2019-03-13T12:29:55.101Z,6.80
2019-03-13T12:35:12.323Z,6.90
2019-03-13T12:40:17.830Z,6.90
2019-03-13T12:45:41.285Z,6.30
2019-03-13T12:50:52.281Z,6.50
2019-03-13T12:56:13.881Z,7.10
2019-03-13T13:01:28.193Z,7.80
2019-03-13T13:06:33.472Z,7.50
2019-03-13T13:11:41.722Z,6.50
2019-03-13T13:17:05.013Z,7.10
2019-03-13T13:22:08.767Z,8.00
2019-03-13T13:27:12.511Z,7.90
2019-03-13T13:32:17.133Z,8.40
2019-03-13T13:37:20.908Z,8.80
2019-03-13T13:42:24.623Z,8.80
2019-03-13T13:47:28.231Z,8.60
2019-03-13T13:52:32.090Z,8.70
2019-03-13T13:57:35.779Z,9.20
2019-03-13T14:02:39.405Z,8.90
2019-03-13T14:07:43.118Z,8.40
2019-03-13T14:12:46.749Z,8.20
2019-03-13T14:17:50.482Z,8.00
2019-03-13T14:22:54.714Z,5.90
2019-03-13T14:27:58.409Z,6.20
2019-03-13T14:33:02.102Z,7.00
2019-03-13T14:38:07.001Z,7.30
2019-03-13T14:43:10.609Z,7.10
2019-03-13T14:48:14.247Z,7.10
2019-03-13T14:53:17.874Z,7.20
2019-03-13T14:58:21.521Z,7.50
2019-03-13T15:03:25.150Z,7.80
2019-03-13T15:08:28.871Z,7.70
2019-03-13T15:13:32.665Z,7.60
2019-03-13T15:18:36.426Z,7.10
2019-03-13T15:23:40.054Z,6.70
2019-03-13T15:28:43.881Z,6.60
2019-03-13T15:33:47.522Z,6.90
2019-03-13T15:38:51.238Z,6.70
2019-03-13T15:43:54.991Z,6.70
2019-03-13T15:48:58.621Z,6.60
2019-03-13T15:54:03.002Z,6.30
2019-03-13T15:59:06.707Z,6.20
2019-03-13T16:04:10.598Z,6.30
2019-03-13T16:09:14.467Z,6.60
2019-03-13T16:14:18.177Z,6.60
2019-03-13T16:19:23.338Z,6.60
2019-03-13T16:24:27.122Z,6.30
2019-03-13T16:29:31.183Z,6.30
2019-03-13T16:34:38.815Z,6.00
2019-03-13T16:39:42.519Z,5.70
2019-03-13T16:44:46.490Z,5.50
2019-03-13T16:49:50.472Z,5.40
2019-03-13T16:54:54.379Z,5.30
2019-03-13T17:00:00.871Z,5.10
2019-03-13T17:05:04.064Z,5.00
2019-03-13T17:10:11.343Z,5.00
2019-03-13T17:15:17.398Z,4.90
2019-03-13T17:20:29.137Z,4.90
2019-03-13T17:25:33.290Z,4.70
2019-03-13T17:30:37.979Z,4.70
2019-03-13T17:35:41.832Z,4.70
2019-03-13T17:40:59.047Z,5.00
2019-03-13T17:46:03.174Z,4.80
2019-03-13T17:51:07.011Z,4.70
2019-03-13T17:56:10.866Z,4.60
2019-03-13T18:01:14.837Z,4.50
2019-03-13T18:06:18.628Z,4.40
2019-03-13T18:11:22.504Z,4.30
2019-03-13T18:16:26.424Z,4.20
2019-03-13T18:21:30.652Z,4.20
2019-03-13T18:26:35.767Z,4.20
2019-03-13T18:31:39.710Z,4.20
2019-03-13T18:36:49.307Z,4.30
2019-03-13T18:41:53.294Z,4.40
2019-03-13T18:46:57.069Z,4.40
2019-03-13T18:52:01.089Z,4.50
2019-03-13T18:57:04.994Z,4.50
2019-03-13T19:02:09.079Z,4.70
2019-03-13T19:07:12.937Z,4.70
2019-03-13T19:12:16.674Z,4.60
2019-03-13T19:17:20.584Z,4.60
2019-03-13T19:22:25.418Z,4.60
2019-03-13T19:27:29.710Z,4.70
2019-03-13T19:32:33.984Z,4.70
2019-03-13T19:37:37.925Z,4.70
2019-03-13T19:42:42.083Z,4.90
2019-03-13T19:47:45.927Z,4.80
2019-03-13T19:52:50.444Z,4.80
2019-03-13T19:57:54.542Z,4.60
2019-03-13T20:03:09.958Z,4.50
2019-03-13T20:08:14.269Z,4.50
2019-03-13T20:13:18.577Z,4.50
2019-03-13T20:18:22.820Z,4.60
2019-03-13T20:23:28.210Z,4.60
2019-03-13T20:28:33.734Z,4.60
2019-03-13T20:33:37.586Z,4.50
2019-03-13T20:38:41.760Z,4.50
2019-03-13T20:43:45.950Z,4.60
2019-03-13T20:48:50.093Z,4.70
2019-03-13T20:53:53.752Z,4.80
2019-03-13T20:58:57.578Z,4.80
2019-03-13T21:04:01.419Z,4.70
2019-03-13T21:09:06.405Z,4.50
2019-03-13T21:14:10.058Z,4.20
2019-03-13T21:19:13.724Z,3.90
2019-03-13T21:24:17.487Z,3.80
2019-03-13T21:29:21.255Z,3.90
2019-03-13T21:34:28.126Z,3.90
2019-03-13T21:39:30.271Z,3.90
2019-03-13T21:44:33.913Z,3.90
2019-03-13T21:49:37.566Z,3.80
2019-03-13T21:54:41.234Z,3.90
2019-03-13T21:59:44.863Z,3.90
2019-03-13T22:04:48.530Z,3.90
2019-03-13T22:09:52.179Z,3.80
2019-03-13T22:14:55.782Z,3.80
2019-03-13T22:19:59.404Z,3.60
2019-03-13T22:25:03.123Z,3.60
2019-03-13T22:30:09.801Z,3.60
2019-03-13T22:35:13.520Z,3.50
2019-03-13T22:40:18.168Z,3.40
2019-03-13T22:45:22.459Z,3.40
2019-03-13T22:50:26.342Z,3.50
2019-03-13T22:55:30.106Z,3.50
2019-03-13T23:00:53.422Z,3.50
2019-03-13T23:05:57.269Z,3.40
2019-03-13T23:11:01.007Z,3.50
2019-03-13T23:16:04.725Z,3.50
2019-03-13T23:21:08.377Z,3.50
2019-03-13T23:26:11.974Z,3.40
2019-03-13T23:31:15.716Z,3.40
2019-03-13T23:36:20.249Z,3.40
2019-03-13T23:41:33.164Z,3.40
2019-03-13T23:46:40.128Z,3.40
2019-03-13T23:51:47.951Z,3.40
2019-03-13T23:56:54.552Z,3.30
